createdAt,value
2022-08-05T00:00:10.647Z,22.0
2022-08-05T00:15:40.761Z,22
2022-08-05T00:30:05.185Z,21.9
2022-08-05T00:45:03.606Z,21.9
2022-08-05T01:00:06.264Z,21.8
2022-08-05T01:15:03.965Z,21.8
2022-08-05T01:30:05.865Z,21.7
2022-08-05T01:45:04.022Z,21.7
2022-08-05T02:00:11.576Z,21.7
2022-08-05T02:15:03.382Z,21.6
2022-08-05T02:30:06.415Z,21.6
2022-08-05T02:45:02.592Z,21.5
2022-08-05T03:00:06.029Z,21.5
2022-08-05T03:15:04.300Z,21.4
2022-08-05T03:30:07.106Z,21.4
2022-08-05T03:45:03.527Z,21.4
2022-08-05T04:00:07.902Z,21.3
2022-08-05T04:15:04.773Z,21.3
2022-08-05T04:30:07.343Z,21.3
2022-08-05T04:45:03.318Z,21.2
2022-08-05T05:00:08.261Z,21.3
2022-08-05T05:15:03.593Z,21.3
2022-08-05T05:30:05.478Z,21.4
2022-08-05T05:45:03.428Z,21.5
2022-08-05T06:00:06.095Z,21.5
2022-08-05T06:15:04.032Z,21.6
2022-08-05T06:30:17.596Z,21.7
2022-08-05T06:45:05.204Z,21.8
2022-08-05T07:00:09.787Z,21.8
2022-08-05T07:15:02.632Z,21.9
2022-08-05T07:30:21.960Z,21.9
2022-08-05T07:45:02.486Z,22
2022-08-05T08:00:11.501Z,22
2022-08-05T08:15:04.225Z,22.1
2022-08-05T08:30:20.389Z,22.2
2022-08-05T08:45:17.581Z,22.2
2022-08-05T09:00:06.618Z,22.2
2022-08-05T09:15:05.626Z,22.3
2022-08-05T09:30:07.071Z,22.3
2022-08-05T09:45:03.524Z,22.4
2022-08-05T10:00:09.081Z,22.4
2022-08-05T10:15:02.553Z,22.5
2022-08-05T10:31:20.511Z,22.5
2022-08-05T10:45:09.733Z,22.6
2022-08-05T11:00:10.076Z,22.6
2022-08-05T11:15:12.016Z,22.7
2022-08-05T11:30:06.382Z,22.7
2022-08-05T11:45:05.218Z,22.7
2022-08-05T12:00:06.228Z,22.7
2022-08-05T12:15:04.084Z,22.8
2022-08-05T12:30:06.012Z,22.8
2022-08-05T12:45:04.416Z,22.8
2022-08-05T13:01:59.623Z,22.8
2022-08-05T13:15:05.791Z,22.7
2022-08-05T13:30:32.445Z,22.8
2022-08-05T13:45:03.547Z,22.8
2022-08-05T14:00:05.700Z,22.9
2022-08-05T14:15:06.096Z,22.9
2022-08-05T14:30:20.511Z,23.0
2022-08-05T14:45:03.485Z,23
2022-08-05T15:00:11.195Z,23.1
2022-08-05T15:15:04.401Z,23.2
2022-08-05T15:30:06.839Z,23.3
2022-08-05T15:45:04.560Z,23.3
2022-08-05T16:00:10.329Z,23.4
2022-08-05T16:15:03.522Z,23.5
2022-08-05T16:30:23.469Z,23.5
2022-08-05T16:45:05.859Z,23.5
2022-08-05T17:00:09.666Z,23.4
2022-08-05T17:15:04.130Z,23.4
2022-08-05T17:30:12.291Z,23.3
2022-08-05T17:45:10.024Z,23.2
2022-08-05T18:00:07.579Z,23.1
2022-08-05T18:15:02.459Z,23.0
2022-08-05T18:30:06.636Z,23
2022-08-05T18:45:03.911Z,22.9
2022-08-05T19:00:13.391Z,22.9
2022-08-05T19:15:02.976Z,22.8
2022-08-05T19:30:05.525Z,22.8
2022-08-05T19:45:03.130Z,22.7
2022-08-05T20:00:07.363Z,22.8
2022-08-05T20:15:04.125Z,22.5
2022-08-05T20:30:06.755Z,22.5
2022-08-05T20:45:03.943Z,22.4
2022-08-05T21:00:10.832Z,22.4
2022-08-05T21:15:05.767Z,22.4
2022-08-05T21:30:10.537Z,22.3
2022-08-05T21:45:03.446Z,22.2
2022-08-05T22:00:07.057Z,22.2
2022-08-05T22:15:03.647Z,22.1
2022-08-05T22:30:05.693Z,22.1
2022-08-05T22:45:03.748Z,22.0
2022-08-05T23:00:06.006Z,22
2022-08-05T23:15:03.918Z,22
2022-08-05T23:30:07.970Z,21.9
2022-08-05T23:45:03.048Z,21.8
